»·PEaware :: SWA3741 KPHX-KLAS

SWA3741 :: KPHX-KLAS

FLIGHT INFORMATION

Flight Status: Arrived
Operator:
Southwest Airlines
More flights by this operator :: More flights under this callsign
Pilot: Erik S. (3779)
Aircraft: BOEING 737-300
(B733)
More flights by this aircraft type
Origin: KPHX Phoenix Sky Harbor Intl
United States
Destination: KLAS McCarran Intl
United States
More flights between these airports :: More routes between these airports
Route: +MAYSA5 SISIE IGM TYSNN5
File this flight plan on PilotEdge
Remarks:
Altitude:
(Current/Filed)
28,000ft
Speed:
(Current/Filed)
478kts
Departed: 23-Sep-17 11:23 AM
Arrived: 23-Sep-17 12:05 PM
Distance/Time
Traveled:
222nm/0:42
Distance/Time
To Go:
Arrived

Flight Plot

Page will automatically refresh every two minutes.

Flight plan parsing failed; only flown route is shown


Map Options




Map Legend


Flown Route
Filed Route
Departure Airport
Arrival Airport
Navaid (VOR, NDB)
Fix

Horizontal Profiles

Position Reports

Time Latitude Longitude Heading Altitude Ground
Speed
23-Sep-17 11:15 33.433442 -111.998950 359 1142ft 0kts
23-Sep-17 11:16 33.433442 -111.998950 359 1142ft 0kts
23-Sep-17 11:17 33.433442 -111.998950 359 1142ft 0kts
23-Sep-17 11:18 33.433442 -111.998950 359 1142ft 0kts
23-Sep-17 11:19 33.433442 -111.998950 359 1142ft 0kts
23-Sep-17 11:20 33.433442 -111.998950 359 1142ft 0kts
23-Sep-17 11:21 33.432946 -111.999004 35 1142ft 0kts
23-Sep-17 11:22 33.432828 -111.999291 78 1142ft 0kts
23-Sep-17 11:23 33.432828 -111.999291 78 1142ft 0kts
23-Sep-17 11:24 33.432861 -111.996545 90 1142ft 25kts
23-Sep-17 11:25 33.432044 -111.993352 205 1142ft 0kts
23-Sep-17 11:26 33.431501 -111.993469 180 1142ft 10kts
23-Sep-17 11:27 33.431084 -112.013695 270 1215ft 167kts
23-Sep-17 11:28 33.435587 -112.073272 315 3971ft 199kts
23-Sep-17 11:29 33.483161 -112.122637 317 6086ft 266kts
23-Sep-17 11:30 33.544141 -112.177570 340 9302ft 294kts
23-Sep-17 11:31 33.626793 -112.205642 342 11433ft 347kts
23-Sep-17 11:32 33.724538 -112.237327 341 13982ft 376kts
23-Sep-17 11:33 33.827654 -112.270711 341 16555ft 394kts
23-Sep-17 11:34 33.935322 -112.305651 340 18890ft 411kts
23-Sep-17 11:35 34.044173 -112.350216 315 21057ft 410kts
23-Sep-17 11:36 34.130926 -112.440703 312 22925ft 419kts
23-Sep-17 11:37 34.221424 -112.532053 312 24798ft 430kts
23-Sep-17 11:38 34.314147 -112.625748 311 26640ft 439kts
23-Sep-17 11:39 34.408059 -112.720995 311 27974ft 455kts
23-Sep-17 11:40 34.504554 -112.819043 311 27954ft 457kts
23-Sep-17 11:41 34.599818 -112.917372 310 27955ft 442kts
23-Sep-17 11:42 34.690169 -113.016712 311 27955ft 435kts
23-Sep-17 11:43 34.779543 -113.114527 311 27956ft 433kts
23-Sep-17 11:44 34.868881 -113.211986 311 27942ft 433kts
23-Sep-17 11:45 34.958225 -113.310424 312 27936ft 435kts
23-Sep-17 11:46 35.027159 -113.426434 294 27607ft 424kts
23-Sep-17 11:47 35.084962 -113.551248 295 25624ft 423kts
23-Sep-17 11:48 35.141808 -113.674005 296 24016ft 407kts
23-Sep-17 11:49 35.197886 -113.795600 296 23933ft 412kts
23-Sep-17 11:50 35.253889 -113.917350 297 23844ft 414kts
23-Sep-17 11:51 35.340785 -114.009046 319 21667ft 408kts
23-Sep-17 11:52 35.428779 -114.090861 320 19255ft 389kts
23-Sep-17 11:53 35.514298 -114.168653 321 16867ft 378kts
23-Sep-17 11:54 35.596786 -114.245308 321 14714ft 369kts
23-Sep-17 11:55 35.676020 -114.319414 322 12764ft 347kts
23-Sep-17 11:56 35.748692 -114.385445 335 12118ft 295kts
23-Sep-17 11:57 35.818357 -114.433887 296 12112ft 299kts
23-Sep-17 11:58 35.837224 -114.533502 281 12119ft 298kts
23-Sep-17 11:59 35.853454 -114.633510 281 12118ft 298kts
23-Sep-17 12:00 35.869605 -114.733453 281 11085ft 294kts
23-Sep-17 12:01 35.885269 -114.830183 281 9559ft 284kts
23-Sep-17 12:02 35.900205 -114.924433 281 8035ft 276kts
23-Sep-17 12:03 35.917453 -115.015889 290 6466ft 270kts
23-Sep-17 12:04 35.944678 -115.100624 298 5108ft 259kts
23-Sep-17 12:05 35.977147 -115.178083 299 4223ft 231kts
23-Sep-17 12:06 36.009520 -115.227011 12 3970ft 164kts
23-Sep-17 12:07 36.041027 -115.192216 35 3160ft 148kts
23-Sep-17 12:08 36.073747 -115.171223 20 2266ft 132kts
23-Sep-17 12:09 36.092609 -115.160491 25 2148ft 0kts
23-Sep-17 12:10 36.093152 -115.158059 115 2148ft 1kts
23-Sep-17 12:11 36.091531 -115.155359 200 2148ft 0kts
23-Sep-17 12:12 36.091229 -115.155503 200 2148ft 9kts
23-Sep-17 12:13 36.086517 -115.157851 149 2148ft 13kts
23-Sep-17 12:14 36.082484 -115.153446 55 2148ft 22kts
23-Sep-17 12:15 36.083126 -115.152215 56 2148ft 0kts
23-Sep-17 12:16 36.083126 -115.152215 56 2148ft 0kts
23-Sep-17 12:17 36.083126 -115.152215 56 2148ft 0kts
23-Sep-17 12:18 36.083126 -115.152215 56 2148ft 0kts
23-Sep-17 12:19 36.083126 -115.152215 56 2148ft 0kts
23-Sep-17 12:20 36.083126 -115.152215 56 2148ft 0kts
23-Sep-17 12:21 36.083126 -115.152215 56 2148ft 0kts
23-Sep-17 12:22 36.083126 -115.152215 56 2148ft 0kts
23-Sep-17 12:23 36.083126 -115.152215 56 2148ft 0kts

Navigation Log

Ident Type
Flight plan parsing failed, navigation log unavailable